<?xml version="1.0" encoding="UTF-8" standalone="no" ?>
<gpx xmlns="http://www.topografix.com/GPX/1/1" xmlns:xsi="http://www.w3.org/2001/XMLSchema-instance" xsi:schemaLocation="http://www.topografix.com/GPX/1/1 http://www.topografix.com/GPX/1/1/gpx.xsd" version="1.1" creator="VisuGPX - https://www.visugpx.com">
  <metadata>
    <name>St Pierre es champs mont ste Hélène </name>
  </metadata>
  <trk>
    <name><![CDATA[019 _CCPB_La cote Sainte_Helene(sentier but david-19300285]]></name>
    <extensions>
      <line xmlns="http://www.topografix.com/GPX/gpx_style/0/2">
        <color>0000FF</color>
        <width>4</width>
      </line>
    </extensions>
    <trkseg>
      <trkpt lat="49.4314" lon="1.72725">
        <ele>103</ele>
        <time>2024-06-26T14:34:05Z</time>
      </trkpt>
      <trkpt lat="49.43088" lon="1.72695">
        <ele>104</ele>
        <time>2024-06-26T14:35:19Z</time>
      </trkpt>
      <trkpt lat="49.43041" lon="1.72674">
        <ele>104</ele>
        <time>2024-06-26T14:36:24Z</time>
      </trkpt>
      <trkpt lat="49.42871" lon="1.72617">
        <ele>100</ele>
        <time>2024-06-26T14:40:17Z</time>
      </trkpt>
      <trkpt lat="49.42829" lon="1.72618">
        <ele>100</ele>
        <time>2024-06-26T14:41:13Z</time>
      </trkpt>
      <trkpt lat="49.4277" lon="1.72608">
        <ele>96</ele>
        <time>2024-06-26T14:42:32Z</time>
      </trkpt>
      <trkpt lat="49.42718" lon="1.72602">
        <ele>93</ele>
        <time>2024-06-26T14:43:41Z</time>
      </trkpt>
      <trkpt lat="49.42649" lon="1.72624">
        <ele>91</ele>
        <time>2024-06-26T14:45:16Z</time>
      </trkpt>
      <trkpt lat="49.4259" lon="1.72643">
        <ele>89</ele>
        <time>2024-06-26T14:46:36Z</time>
      </trkpt>
      <trkpt lat="49.42557" lon="1.72683">
        <ele>90</ele>
        <time>2024-06-26T14:47:32Z</time>
      </trkpt>
      <trkpt lat="49.4251" lon="1.72763">
        <ele>91</ele>
        <time>2024-06-26T14:49:06Z</time>
      </trkpt>
      <trkpt lat="49.42492" lon="1.72791">
        <ele>91</ele>
        <time>2024-06-26T14:49:40Z</time>
      </trkpt>
      <trkpt lat="49.4248" lon="1.72764">
        <ele>90</ele>
        <time>2024-06-26T14:50:08Z</time>
      </trkpt>
      <trkpt lat="49.42427" lon="1.72816">
        <ele>91</ele>
        <time>2024-06-26T14:51:32Z</time>
      </trkpt>
      <trkpt lat="49.42376" lon="1.72778">
        <ele>90</ele>
        <time>2024-06-26T14:52:48Z</time>
      </trkpt>
      <trkpt lat="49.42172" lon="1.72677">
        <ele>92</ele>
        <time>2024-06-26T14:57:34Z</time>
      </trkpt>
      <trkpt lat="49.42164" lon="1.72656">
        <ele>92</ele>
        <time>2024-06-26T14:57:55Z</time>
      </trkpt>
      <trkpt lat="49.42116" lon="1.7266">
        <ele>94</ele>
        <time>2024-06-26T14:58:59Z</time>
      </trkpt>
      <trkpt lat="49.42089" lon="1.72652">
        <ele>94</ele>
        <time>2024-06-26T14:59:36Z</time>
      </trkpt>
      <trkpt lat="49.42053" lon="1.72634">
        <ele>95</ele>
        <time>2024-06-26T15:00:26Z</time>
      </trkpt>
      <trkpt lat="49.42008" lon="1.72613">
        <ele>96</ele>
        <time>2024-06-26T15:01:29Z</time>
      </trkpt>
      <trkpt lat="49.41976" lon="1.72685">
        <ele>99</ele>
        <time>2024-06-26T15:02:45Z</time>
      </trkpt>
      <trkpt lat="49.4195" lon="1.72721">
        <ele>100</ele>
        <time>2024-06-26T15:03:31Z</time>
      </trkpt>
      <trkpt lat="49.41906" lon="1.72723">
        <ele>102</ele>
        <time>2024-06-26T15:04:30Z</time>
      </trkpt>
      <trkpt lat="49.4188" lon="1.72728">
        <ele>104</ele>
        <time>2024-06-26T15:05:05Z</time>
      </trkpt>
      <trkpt lat="49.41836" lon="1.72792">
        <ele>110</ele>
        <time>2024-06-26T15:06:26Z</time>
      </trkpt>
      <trkpt lat="49.418" lon="1.72828">
        <ele>114</ele>
        <time>2024-06-26T15:07:23Z</time>
      </trkpt>
      <trkpt lat="49.41731" lon="1.72887">
        <ele>122</ele>
        <time>2024-06-26T15:09:09Z</time>
      </trkpt>
      <trkpt lat="49.41709" lon="1.72965">
        <ele>129</ele>
        <time>2024-06-26T15:10:22Z</time>
      </trkpt>
      <trkpt lat="49.41686" lon="1.7301">
        <ele>136</ele>
        <time>2024-06-26T15:11:12Z</time>
      </trkpt>
      <trkpt lat="49.41636" lon="1.73055">
        <ele>152</ele>
        <time>2024-06-26T15:12:29Z</time>
      </trkpt>
      <trkpt lat="49.41628" lon="1.73105">
        <ele>160</ele>
        <time>2024-06-26T15:13:14Z</time>
      </trkpt>
      <trkpt lat="49.41629" lon="1.73164">
        <ele>165</ele>
        <time>2024-06-26T15:14:05Z</time>
      </trkpt>
      <trkpt lat="49.41622" lon="1.73219">
        <ele>174</ele>
        <time>2024-06-26T15:14:54Z</time>
      </trkpt>
      <trkpt lat="49.41628" lon="1.73284">
        <ele>181</ele>
        <time>2024-06-26T15:15:51Z</time>
      </trkpt>
      <trkpt lat="49.41652" lon="1.73353">
        <ele>185</ele>
        <time>2024-06-26T15:16:59Z</time>
      </trkpt>
      <trkpt lat="49.41698" lon="1.73431">
        <ele>188</ele>
        <time>2024-06-26T15:18:30Z</time>
      </trkpt>
      <trkpt lat="49.41634" lon="1.73436">
        <ele>194</ele>
        <time>2024-06-26T15:19:56Z</time>
      </trkpt>
      <trkpt lat="49.41567" lon="1.73479">
        <ele>201</ele>
        <time>2024-06-26T15:21:33Z</time>
      </trkpt>
      <trkpt lat="49.4154" lon="1.73514">
        <ele>203</ele>
        <time>2024-06-26T15:22:20Z</time>
      </trkpt>
      <trkpt lat="49.41496" lon="1.73585">
        <ele>207</ele>
        <time>2024-06-26T15:23:45Z</time>
      </trkpt>
      <trkpt lat="49.41458" lon="1.73648">
        <ele>207</ele>
        <time>2024-06-26T15:25:00Z</time>
      </trkpt>
      <trkpt lat="49.41384" lon="1.73755">
        <ele>204</ele>
        <time>2024-06-26T15:27:15Z</time>
      </trkpt>
      <trkpt lat="49.41286" lon="1.739">
        <ele>199</ele>
        <time>2024-06-26T15:30:17Z</time>
      </trkpt>
      <trkpt lat="49.41263" lon="1.73922">
        <ele>198</ele>
        <time>2024-06-26T15:30:53Z</time>
      </trkpt>
      <trkpt lat="49.41239" lon="1.73942">
        <ele>197</ele>
        <time>2024-06-26T15:31:29Z</time>
      </trkpt>
      <trkpt lat="49.41194" lon="1.73946">
        <ele>195</ele>
        <time>2024-06-26T15:32:29Z</time>
      </trkpt>
      <trkpt lat="49.41143" lon="1.73957">
        <ele>195</ele>
        <time>2024-06-26T15:33:38Z</time>
      </trkpt>
      <trkpt lat="49.41117" lon="1.73965">
        <ele>196</ele>
        <time>2024-06-26T15:34:13Z</time>
      </trkpt>
      <trkpt lat="49.4109" lon="1.73985">
        <ele>197</ele>
        <time>2024-06-26T15:34:53Z</time>
      </trkpt>
      <trkpt lat="49.41066" lon="1.74032">
        <ele>199</ele>
        <time>2024-06-26T15:35:45Z</time>
      </trkpt>
      <trkpt lat="49.41041" lon="1.74065">
        <ele>199</ele>
        <time>2024-06-26T15:36:29Z</time>
      </trkpt>
      <trkpt lat="49.40995" lon="1.74113">
        <ele>200</ele>
        <time>2024-06-26T15:37:43Z</time>
      </trkpt>
      <trkpt lat="49.40971" lon="1.74154">
        <ele>199</ele>
        <time>2024-06-26T15:38:31Z</time>
      </trkpt>
      <trkpt lat="49.40919" lon="1.74225">
        <ele>198</ele>
        <time>2024-06-26T15:40:04Z</time>
      </trkpt>
      <trkpt lat="49.40822" lon="1.74363">
        <ele>195</ele>
        <time>2024-06-26T15:43:01Z</time>
      </trkpt>
      <trkpt lat="49.40855" lon="1.74427">
        <ele>199</ele>
        <time>2024-06-26T15:44:11Z</time>
      </trkpt>
      <trkpt lat="49.40886" lon="1.74493">
        <ele>200</ele>
        <time>2024-06-26T15:45:22Z</time>
      </trkpt>
      <trkpt lat="49.40917" lon="1.74561">
        <ele>198</ele>
        <time>2024-06-26T15:46:34Z</time>
      </trkpt>
      <trkpt lat="49.41019" lon="1.74809">
        <ele>202</ele>
        <time>2024-06-26T15:50:49Z</time>
      </trkpt>
      <trkpt lat="49.41031" lon="1.74885">
        <ele>203</ele>
        <time>2024-06-26T15:51:57Z</time>
      </trkpt>
      <trkpt lat="49.41032" lon="1.74974">
        <ele>205</ele>
        <time>2024-06-26T15:53:14Z</time>
      </trkpt>
      <trkpt lat="49.41023" lon="1.75101">
        <ele>205</ele>
        <time>2024-06-26T15:55:05Z</time>
      </trkpt>
      <trkpt lat="49.41014" lon="1.75418">
        <ele>201</ele>
        <time>2024-06-26T15:59:41Z</time>
      </trkpt>
      <trkpt lat="49.41018" lon="1.75436">
        <ele>201</ele>
        <time>2024-06-26T15:59:57Z</time>
      </trkpt>
      <trkpt lat="49.41001" lon="1.75539">
        <ele>199</ele>
        <time>2024-06-26T16:01:29Z</time>
      </trkpt>
      <trkpt lat="49.40993" lon="1.75609">
        <ele>199</ele>
        <time>2024-06-26T16:02:31Z</time>
      </trkpt>
      <trkpt lat="49.40987" lon="1.75676">
        <ele>200</ele>
        <time>2024-06-26T16:03:30Z</time>
      </trkpt>
      <trkpt lat="49.40995" lon="1.75758">
        <ele>199</ele>
        <time>2024-06-26T16:04:42Z</time>
      </trkpt>
      <trkpt lat="49.41" lon="1.75814">
        <ele>199</ele>
        <time>2024-06-26T16:05:31Z</time>
      </trkpt>
      <trkpt lat="49.40992" lon="1.75947">
        <ele>196</ele>
        <time>2024-06-26T16:07:27Z</time>
      </trkpt>
      <trkpt lat="49.41026" lon="1.75924">
        <ele>198</ele>
        <time>2024-06-26T16:08:16Z</time>
      </trkpt>
      <trkpt lat="49.41055" lon="1.75917">
        <ele>199</ele>
        <time>2024-06-26T16:08:56Z</time>
      </trkpt>
      <trkpt lat="49.41111" lon="1.75909">
        <ele>201</ele>
        <time>2024-06-26T16:10:11Z</time>
      </trkpt>
      <trkpt lat="49.4119" lon="1.75896">
        <ele>201</ele>
        <time>2024-06-26T16:11:57Z</time>
      </trkpt>
      <trkpt lat="49.41272" lon="1.75906">
        <ele>203</ele>
        <time>2024-06-26T16:13:46Z</time>
      </trkpt>
      <trkpt lat="49.41326" lon="1.75927">
        <ele>204</ele>
        <time>2024-06-26T16:15:01Z</time>
      </trkpt>
      <trkpt lat="49.4138" lon="1.7595">
        <ele>204</ele>
        <time>2024-06-26T16:16:16Z</time>
      </trkpt>
      <trkpt lat="49.41423" lon="1.75979">
        <ele>204</ele>
        <time>2024-06-26T16:17:18Z</time>
      </trkpt>
      <trkpt lat="49.41463" lon="1.76018">
        <ele>202</ele>
        <time>2024-06-26T16:18:21Z</time>
      </trkpt>
      <trkpt lat="49.41501" lon="1.76067">
        <ele>199</ele>
        <time>2024-06-26T16:19:28Z</time>
      </trkpt>
      <trkpt lat="49.41527" lon="1.76075">
        <ele>196</ele>
        <time>2024-06-26T16:20:03Z</time>
      </trkpt>
      <trkpt lat="49.4156" lon="1.76079">
        <ele>194</ele>
        <time>2024-06-26T16:20:47Z</time>
      </trkpt>
      <trkpt lat="49.41615" lon="1.76096">
        <ele>193</ele>
        <time>2024-06-26T16:22:02Z</time>
      </trkpt>
      <trkpt lat="49.41634" lon="1.76116">
        <ele>194</ele>
        <time>2024-06-26T16:22:33Z</time>
      </trkpt>
      <trkpt lat="49.41663" lon="1.76138">
        <ele>195</ele>
        <time>2024-06-26T16:23:16Z</time>
      </trkpt>
      <trkpt lat="49.4169" lon="1.76065">
        <ele>197</ele>
        <time>2024-06-26T16:24:29Z</time>
      </trkpt>
      <trkpt lat="49.41719" lon="1.75931">
        <ele>203</ele>
        <time>2024-06-26T16:26:31Z</time>
      </trkpt>
      <trkpt lat="49.41727" lon="1.7588">
        <ele>205</ele>
        <time>2024-06-26T16:27:17Z</time>
      </trkpt>
      <trkpt lat="49.41721" lon="1.75854">
        <ele>205</ele>
        <time>2024-06-26T16:27:41Z</time>
      </trkpt>
      <trkpt lat="49.41703" lon="1.75824">
        <ele>205</ele>
        <time>2024-06-26T16:28:16Z</time>
      </trkpt>
      <trkpt lat="49.41678" lon="1.75794">
        <ele>206</ele>
        <time>2024-06-26T16:28:59Z</time>
      </trkpt>
      <trkpt lat="49.41664" lon="1.7576">
        <ele>207</ele>
        <time>2024-06-26T16:29:34Z</time>
      </trkpt>
      <trkpt lat="49.41656" lon="1.75717">
        <ele>208</ele>
        <time>2024-06-26T16:30:12Z</time>
      </trkpt>
      <trkpt lat="49.41655" lon="1.75666">
        <ele>210</ele>
        <time>2024-06-26T16:30:57Z</time>
      </trkpt>
      <trkpt lat="49.41644" lon="1.75476">
        <ele>211</ele>
        <time>2024-06-26T16:33:42Z</time>
      </trkpt>
      <trkpt lat="49.41642" lon="1.75415">
        <ele>212</ele>
        <time>2024-06-26T16:34:35Z</time>
      </trkpt>
      <trkpt lat="49.41676" lon="1.75139">
        <ele>217</ele>
        <time>2024-06-26T16:38:39Z</time>
      </trkpt>
      <trkpt lat="49.41679" lon="1.75094">
        <ele>216</ele>
        <time>2024-06-26T16:39:19Z</time>
      </trkpt>
      <trkpt lat="49.41728" lon="1.75056">
        <ele>216</ele>
        <time>2024-06-26T16:40:32Z</time>
      </trkpt>
      <trkpt lat="49.41774" lon="1.75053">
        <ele>216</ele>
        <time>2024-06-26T16:41:33Z</time>
      </trkpt>
      <trkpt lat="49.41937" lon="1.75092">
        <ele>217</ele>
        <time>2024-06-26T16:45:13Z</time>
      </trkpt>
      <trkpt lat="49.42075" lon="1.75223">
        <ele>216</ele>
        <time>2024-06-26T16:48:50Z</time>
      </trkpt>
      <trkpt lat="49.42088" lon="1.75234">
        <ele>217</ele>
        <time>2024-06-26T16:49:10Z</time>
      </trkpt>
      <trkpt lat="49.421" lon="1.75275">
        <ele>217</ele>
        <time>2024-06-26T16:49:49Z</time>
      </trkpt>
      <trkpt lat="49.42095" lon="1.75354">
        <ele>218</ele>
        <time>2024-06-26T16:50:57Z</time>
      </trkpt>
      <trkpt lat="49.42094" lon="1.75394">
        <ele>219</ele>
        <time>2024-06-26T16:51:32Z</time>
      </trkpt>
      <trkpt lat="49.42129" lon="1.75423">
        <ele>217</ele>
        <time>2024-06-26T16:52:25Z</time>
      </trkpt>
      <trkpt lat="49.42164" lon="1.7546">
        <ele>216</ele>
        <time>2024-06-26T16:53:22Z</time>
      </trkpt>
      <trkpt lat="49.42199" lon="1.75473">
        <ele>215</ele>
        <time>2024-06-26T16:54:10Z</time>
      </trkpt>
      <trkpt lat="49.42298" lon="1.75557">
        <ele>214</ele>
        <time>2024-06-26T16:56:41Z</time>
      </trkpt>
      <trkpt lat="49.4233" lon="1.75486">
        <ele>215</ele>
        <time>2024-06-26T16:57:56Z</time>
      </trkpt>
      <trkpt lat="49.42338" lon="1.75414">
        <ele>214</ele>
        <time>2024-06-26T16:58:59Z</time>
      </trkpt>
      <trkpt lat="49.42366" lon="1.75385">
        <ele>215</ele>
        <time>2024-06-26T16:59:44Z</time>
      </trkpt>
      <trkpt lat="49.42382" lon="1.75354">
        <ele>215</ele>
        <time>2024-06-26T17:00:19Z</time>
      </trkpt>
      <trkpt lat="49.42487" lon="1.75172">
        <ele>215</ele>
        <time>2024-06-26T17:03:50Z</time>
      </trkpt>
      <trkpt lat="49.42456" lon="1.75122">
        <ele>213</ele>
        <time>2024-06-26T17:04:50Z</time>
      </trkpt>
      <trkpt lat="49.42442" lon="1.75053">
        <ele>211</ele>
        <time>2024-06-26T17:05:53Z</time>
      </trkpt>
      <trkpt lat="49.42433" lon="1.74993">
        <ele>210</ele>
        <time>2024-06-26T17:06:46Z</time>
      </trkpt>
      <trkpt lat="49.4243" lon="1.74937">
        <ele>209</ele>
        <time>2024-06-26T17:07:35Z</time>
      </trkpt>
      <trkpt lat="49.42431" lon="1.74872">
        <ele>208</ele>
        <time>2024-06-26T17:08:31Z</time>
      </trkpt>
      <trkpt lat="49.42435" lon="1.74819">
        <ele>207</ele>
        <time>2024-06-26T17:09:18Z</time>
      </trkpt>
      <trkpt lat="49.42444" lon="1.74763">
        <ele>207</ele>
        <time>2024-06-26T17:10:08Z</time>
      </trkpt>
      <trkpt lat="49.42459" lon="1.74716">
        <ele>206</ele>
        <time>2024-06-26T17:10:53Z</time>
      </trkpt>
      <trkpt lat="49.42489" lon="1.74683">
        <ele>206</ele>
        <time>2024-06-26T17:11:42Z</time>
      </trkpt>
      <trkpt lat="49.42525" lon="1.74637">
        <ele>202</ele>
        <time>2024-06-26T17:12:45Z</time>
      </trkpt>
      <trkpt lat="49.42551" lon="1.74596">
        <ele>198</ele>
        <time>2024-06-26T17:13:34Z</time>
      </trkpt>
      <trkpt lat="49.42627" lon="1.74519">
        <ele>193</ele>
        <time>2024-06-26T17:15:36Z</time>
      </trkpt>
      <trkpt lat="49.42645" lon="1.74493">
        <ele>193</ele>
        <time>2024-06-26T17:16:09Z</time>
      </trkpt>
      <trkpt lat="49.42693" lon="1.74458">
        <ele>197</ele>
        <time>2024-06-26T17:17:20Z</time>
      </trkpt>
      <trkpt lat="49.42749" lon="1.74416">
        <ele>205</ele>
        <time>2024-06-26T17:18:43Z</time>
      </trkpt>
      <trkpt lat="49.42789" lon="1.74385">
        <ele>209</ele>
        <time>2024-06-26T17:19:43Z</time>
      </trkpt>
      <trkpt lat="49.42844" lon="1.74055">
        <ele>202</ele>
        <time>2024-06-26T17:24:38Z</time>
      </trkpt>
      <trkpt lat="49.42835" lon="1.74011">
        <ele>201</ele>
        <time>2024-06-26T17:25:18Z</time>
      </trkpt>
      <trkpt lat="49.42813" lon="1.73935">
        <ele>195</ele>
        <time>2024-06-26T17:26:31Z</time>
      </trkpt>
      <trkpt lat="49.42766" lon="1.73719">
        <ele>192</ele>
        <time>2024-06-26T17:29:48Z</time>
      </trkpt>
      <trkpt lat="49.42749" lon="1.73621">
        <ele>192</ele>
        <time>2024-06-26T17:31:16Z</time>
      </trkpt>
      <trkpt lat="49.42721" lon="1.73534">
        <ele>186</ele>
        <time>2024-06-26T17:32:41Z</time>
      </trkpt>
      <trkpt lat="49.42704" lon="1.73473">
        <ele>182</ele>
        <time>2024-06-26T17:33:38Z</time>
      </trkpt>
      <trkpt lat="49.42678" lon="1.73395">
        <ele>174</ele>
        <time>2024-06-26T17:34:54Z</time>
      </trkpt>
      <trkpt lat="49.42707" lon="1.73379">
        <ele>170</ele>
        <time>2024-06-26T17:35:35Z</time>
      </trkpt>
      <trkpt lat="49.42744" lon="1.73384">
        <ele>170</ele>
        <time>2024-06-26T17:36:25Z</time>
      </trkpt>
      <trkpt lat="49.42806" lon="1.73424">
        <ele>161</ele>
        <time>2024-06-26T17:37:55Z</time>
      </trkpt>
      <trkpt lat="49.42872" lon="1.73533">
        <ele>157</ele>
        <time>2024-06-26T17:40:04Z</time>
      </trkpt>
      <trkpt lat="49.42913" lon="1.73692">
        <ele>155</ele>
        <time>2024-06-26T17:42:32Z</time>
      </trkpt>
      <trkpt lat="49.43019" lon="1.73591">
        <ele>129</ele>
        <time>2024-06-26T17:45:19Z</time>
      </trkpt>
      <trkpt lat="49.42904" lon="1.73267">
        <ele>125</ele>
        <time>2024-06-26T17:50:39Z</time>
      </trkpt>
      <trkpt lat="49.43051" lon="1.72956">
        <ele>114</ele>
        <time>2024-06-26T17:56:13Z</time>
      </trkpt>
      <trkpt lat="49.43111" lon="1.72829">
        <ele>109</ele>
        <time>2024-06-26T17:58:29Z</time>
      </trkpt>
      <trkpt lat="49.43142" lon="1.72727">
        <ele>103</ele>
        <time>2024-06-26T18:00:07Z</time>
      </trkpt>
    </trkseg>
  </trk>
</gpx>